Charlevoix, Michigan
Current Conditions -  °F | °C
As of 9:14 AM on Thursday 23 Oct 2014 (Local Time) from KCVX Reporting Station
Clear Clear  
Wind Chill: 30°   Ceiling: Unl
Heat Index: 36°   Visibility: 7mi
Dew Point: 36°   Wind: 7mph
Humidity: 100%   Direction: 140°SE
Pressure: 30.25"   Gusts: NA
Location:  45.32°N, 85.26°W
Report Text: KCVX 231314Z AUTO 14006KT 7SM CLR 02/02 A3025 RMK AO2 T00210021
Loading
Personal Weather Stations






























Interactive Weather Map
Tropical Storm Tracking
New forecast layout! Learn more

10-Day Weather Forecast

Advertisements
Track Severe Weather on mobile